createdAt,value
2022-10-15T00:00:59.249Z,10.77
2022-10-15T00:04:16.979Z,10.68
2022-10-15T00:07:33.851Z,10.65
2022-10-15T00:10:51.663Z,10.59
2022-10-15T00:14:09.261Z,10.60
2022-10-15T00:17:25.697Z,10.61
2022-10-15T00:20:42.349Z,10.58
2022-10-15T00:23:58.962Z,10.61
2022-10-15T00:27:15.318Z,10.60
2022-10-15T00:30:31.457Z,10.58
2022-10-15T00:33:49.142Z,10.60
2022-10-15T00:37:05.179Z,10.63
2022-10-15T00:40:23.686Z,10.67
2022-10-15T00:43:50.240Z,10.66
2022-10-15T00:47:10.708Z,10.71
2022-10-15T00:50:30.750Z,10.72
2022-10-15T00:53:47.138Z,10.73
2022-10-15T00:57:04.749Z,10.72
2022-10-15T01:00:25.102Z,10.73
2022-10-15T01:03:41.262Z,10.72
2022-10-15T01:06:57.355Z,10.72
2022-10-15T01:10:15.753Z,10.73
2022-10-15T01:13:41.759Z,10.76
2022-10-15T01:17:04.123Z,10.76
2022-10-15T01:20:58.550Z,10.73
2022-10-15T01:24:48.638Z,10.70
2022-10-15T01:28:10.714Z,10.68
2022-10-15T01:31:34.097Z,10.71
2022-10-15T01:34:56.077Z,10.76
2022-10-15T01:38:21.526Z,10.68
2022-10-15T01:41:43.463Z,10.64
2022-10-15T01:45:03.906Z,10.65
2022-10-15T01:48:26.855Z,10.62
2022-10-15T01:51:48.744Z,10.64
2022-10-15T01:55:07.458Z,10.57
2022-10-15T01:58:26.580Z,10.58
2022-10-15T02:04:58.475Z,10.49
2022-10-15T02:08:20.326Z,10.44
2022-10-15T02:11:43.378Z,10.38
2022-10-15T02:15:04.692Z,10.34
2022-10-15T02:18:25.957Z,10.28
2022-10-15T02:21:47.801Z,10.25
2022-10-15T02:25:09.364Z,10.20
2022-10-15T02:28:27.667Z,10.15
2022-10-15T02:31:47.691Z,10.17
2022-10-15T02:35:04.666Z,10.24
2022-10-15T02:38:25.129Z,10.24
2022-10-15T02:41:43.862Z,10.24
2022-10-15T02:45:01.175Z,10.22
2022-10-15T02:48:18.097Z,10.18
2022-10-15T02:51:38.708Z,10.23
2022-10-15T02:54:54.912Z,10.23
2022-10-15T02:58:11.428Z,10.20
2022-10-15T03:01:28.015Z,10.19
2022-10-15T03:04:44.516Z,10.20
2022-10-15T03:08:03.153Z,10.26
2022-10-15T03:11:17.988Z,10.35
2022-10-15T03:14:34.549Z,10.39
2022-10-15T03:17:52.984Z,10.50
2022-10-15T03:21:09.765Z,10.45
2022-10-15T03:24:26.930Z,10.46
2022-10-15T03:27:43.146Z,10.43
2022-10-15T03:31:00.919Z,10.48
2022-10-15T03:34:17.643Z,10.47
2022-10-15T03:37:34.724Z,10.43
2022-10-15T03:40:52.935Z,10.46
2022-10-15T03:44:13.915Z,10.40
2022-10-15T03:47:31.731Z,10.37
2022-10-15T03:50:49.271Z,10.35
2022-10-15T03:54:06.075Z,10.30
2022-10-15T03:57:23.801Z,10.27
2022-10-15T04:00:42.113Z,10.25
2022-10-15T04:04:01.188Z,10.20
2022-10-15T04:07:18.462Z,10.19
2022-10-15T04:10:35.432Z,10.16
2022-10-15T04:13:55.404Z,10.10
2022-10-15T04:17:11.770Z,10.02
2022-10-15T04:20:28.342Z,9.96
2022-10-15T04:23:46.751Z,9.93
2022-10-15T04:27:08.397Z,9.87
2022-10-15T04:30:25.877Z,9.86
2022-10-15T04:33:44.123Z,10.00
2022-10-15T04:37:00.681Z,10.10
2022-10-15T04:40:20.208Z,10.06
2022-10-15T04:43:34.613Z,10.08
2022-10-15T04:46:52.788Z,10.05
2022-10-15T04:50:26.055Z,10.08
2022-10-15T04:54:03.132Z,10.23
2022-10-15T04:57:19.379Z,10.36
2022-10-15T05:00:35.588Z,10.63
2022-10-15T05:03:58.348Z,10.74
2022-10-15T05:07:15.242Z,10.87
2022-10-15T05:10:31.499Z,10.96
2022-10-15T05:13:49.623Z,11.09
2022-10-15T05:17:06.481Z,11.19
2022-10-15T05:20:24.644Z,11.25
2022-10-15T05:23:42.057Z,11.31
2022-10-15T05:27:05.440Z,11.32
2022-10-15T05:30:23.459Z,11.34
2022-10-15T05:33:40.997Z,11.41
2022-10-15T05:36:58.067Z,11.48
2022-10-15T05:40:19.651Z,11.54
2022-10-15T05:43:40.307Z,11.65
2022-10-15T05:46:55.108Z,11.73
2022-10-15T05:50:14.523Z,11.87
2022-10-15T05:53:32.477Z,12.06
2022-10-15T05:56:50.249Z,12.17
2022-10-15T06:00:06.354Z,12.27
2022-10-15T06:03:24.819Z,12.38
2022-10-15T06:06:40.881Z,12.54
2022-10-15T06:09:57.569Z,12.62
2022-10-15T06:13:16.152Z,12.72
2022-10-15T06:16:32.751Z,12.79
2022-10-15T06:19:49.338Z,12.87
2022-10-15T06:23:11.846Z,12.93
2022-10-15T06:26:28.557Z,13.01
2022-10-15T06:29:44.985Z,13.17
2022-10-15T06:33:02.344Z,13.30
2022-10-15T06:36:19.862Z,13.45
2022-10-15T06:39:36.089Z,13.66
2022-10-15T06:42:52.557Z,13.78
2022-10-15T06:46:09.697Z,13.94
2022-10-15T06:49:25.770Z,13.98
2022-10-15T06:52:42.477Z,14.00
2022-10-15T06:56:07.606Z,14.11
2022-10-15T06:59:26.780Z,14.16
2022-10-15T07:02:48.838Z,14.32
2022-10-15T07:06:12.767Z,14.55
2022-10-15T07:09:29.102Z,14.53
2022-10-15T07:12:48.742Z,14.50
2022-10-15T07:16:05.315Z,14.55
2022-10-15T07:19:22.254Z,14.66
2022-10-15T07:22:38.359Z,14.73
2022-10-15T07:25:54.745Z,14.78
2022-10-15T07:29:11.590Z,14.86
2022-10-15T07:32:28.437Z,14.92
2022-10-15T07:35:45.222Z,15.03
2022-10-15T07:39:01.452Z,15.00
2022-10-15T07:42:17.642Z,15.04
2022-10-15T07:45:34.876Z,15.07
2022-10-15T07:48:50.632Z,15.08
2022-10-15T07:52:08.533Z,15.08
2022-10-15T07:55:25.051Z,15.14
2022-10-15T07:58:41.382Z,15.21
2022-10-15T08:01:57.602Z,15.29
2022-10-15T08:05:15.514Z,15.35
2022-10-15T08:08:34.039Z,15.46
2022-10-15T08:11:50.740Z,15.59
2022-10-15T08:15:08.187Z,15.73
2022-10-15T08:18:24.404Z,15.91
2022-10-15T08:21:42.718Z,16.12
2022-10-15T08:24:58.141Z,16.19
2022-10-15T08:28:14.866Z,16.31
2022-10-15T08:31:32.482Z,16.45
2022-10-15T08:34:48.583Z,16.56
2022-10-15T08:38:05.252Z,16.69
2022-10-15T08:41:33.395Z,16.89
2022-10-15T08:44:55.110Z,17.06
2022-10-15T08:48:16.270Z,17.19
2022-10-15T08:51:39.567Z,17.29
2022-10-15T08:54:55.653Z,17.41
2022-10-15T08:58:19.152Z,17.51
2022-10-15T09:01:41.167Z,17.67
2022-10-15T09:05:05.291Z,17.83
2022-10-15T09:08:30.879Z,18.02
2022-10-15T09:11:56.528Z,18.10
2022-10-15T09:15:16.506Z,18.17
2022-10-15T09:18:37.593Z,18.21
2022-10-15T09:21:57.756Z,18.22
2022-10-15T09:25:28.606Z,18.24
2022-10-15T09:28:54.437Z,18.34
2022-10-15T09:32:19.667Z,18.29
2022-10-15T09:35:40.866Z,18.55
2022-10-15T09:39:07.818Z,18.61
2022-10-15T09:42:34.594Z,18.70
2022-10-15T09:45:51.796Z,18.63
2022-10-15T09:49:18.453Z,18.78
2022-10-15T09:52:48.277Z,18.72
2022-10-15T09:56:09.050Z,18.70
2022-10-15T09:59:29.399Z,18.66
2022-10-15T10:02:49.877Z,18.50
2022-10-15T10:06:14.992Z,18.49
2022-10-15T10:09:37.629Z,18.40
2022-10-15T10:12:55.156Z,18.30
2022-10-15T10:16:17.923Z,18.25
2022-10-15T10:19:34.194Z,18.20
2022-10-15T10:22:55.284Z,18.17
2022-10-15T10:26:16.613Z,18.16
2022-10-15T10:29:35.307Z,18.13
2022-10-15T10:32:55.079Z,18.08
2022-10-15T10:36:13.819Z,18.10
2022-10-15T10:39:37.289Z,18.12
2022-10-15T10:42:53.406Z,18.05
2022-10-15T10:46:15.415Z,18.01
2022-10-15T10:49:43.773Z,17.85
2022-10-15T10:53:20.624Z,17.86
2022-10-15T10:56:40.735Z,17.84
2022-10-15T11:00:00.926Z,17.75
2022-10-15T11:03:26.856Z,17.75
2022-10-15T11:07:04.388Z,17.76
2022-10-15T11:10:27.376Z,17.75
2022-10-15T11:13:59.320Z,17.72
2022-10-15T11:17:21.925Z,17.62
2022-10-15T11:20:56.305Z,17.58
2022-10-15T11:24:37.792Z,17.59
2022-10-15T11:28:14.627Z,17.55
2022-10-15T11:31:44.020Z,17.51
2022-10-15T11:35:07.312Z,17.49
2022-10-15T11:38:31.351Z,17.49
2022-10-15T11:41:53.411Z,17.53
2022-10-15T11:45:44.448Z,17.59
2022-10-15T11:49:13.454Z,17.66
2022-10-15T11:52:53.872Z,17.69
2022-10-15T11:56:16.016Z,17.76
2022-10-15T11:59:43.513Z,17.76
2022-10-15T12:03:03.542Z,17.78
2022-10-15T12:06:24.052Z,17.80
2022-10-15T12:09:44.815Z,17.76
2022-10-15T12:13:06.282Z,17.73
2022-10-15T12:16:30.872Z,17.74
2022-10-15T12:19:52.032Z,17.74
2022-10-15T12:23:10.852Z,17.68
2022-10-15T12:26:39.937Z,17.72
2022-10-15T12:30:05.132Z,17.71
2022-10-15T12:33:41.023Z,17.71
2022-10-15T12:37:06.701Z,17.71
2022-10-15T12:40:34.958Z,17.69
2022-10-15T12:43:56.454Z,17.72
2022-10-15T12:47:14.876Z,17.69
2022-10-15T12:50:36.363Z,17.69
2022-10-15T12:53:56.938Z,17.72
2022-10-15T12:57:44.976Z,17.72
2022-10-15T13:01:01.117Z,17.71
2022-10-15T13:04:17.902Z,17.72
2022-10-15T13:07:36.803Z,17.73
2022-10-15T13:11:00.728Z,17.76
2022-10-15T13:14:30.169Z,17.77
2022-10-15T13:17:48.765Z,17.82
2022-10-15T13:21:11.271Z,17.84
2022-10-15T13:24:30.012Z,17.86
2022-10-15T13:27:47.110Z,17.88
2022-10-15T13:31:03.991Z,17.87
2022-10-15T13:34:29.981Z,17.87
2022-10-15T13:37:51.812Z,17.87
2022-10-15T13:41:08.209Z,17.84
2022-10-15T13:44:34.647Z,17.85
2022-10-15T13:47:54.774Z,17.83
2022-10-15T13:51:15.041Z,17.79
2022-10-15T13:54:34.256Z,17.78
2022-10-15T13:57:53.819Z,17.78
2022-10-15T14:01:14.197Z,17.76
2022-10-15T14:04:32.057Z,17.77
2022-10-15T14:07:48.074Z,17.73
2022-10-15T14:11:06.955Z,17.69
2022-10-15T14:14:48.911Z,17.67
2022-10-15T14:18:06.309Z,17.62
2022-10-15T14:21:28.905Z,17.57
2022-10-15T14:24:47.557Z,17.56
2022-10-15T14:28:04.043Z,17.56
2022-10-15T14:31:32.449Z,17.53
2022-10-15T14:34:50.197Z,17.49
2022-10-15T14:38:21.774Z,17.47
2022-10-15T14:41:40.761Z,17.41
2022-10-15T14:45:01.457Z,17.40
2022-10-15T14:48:25.088Z,17.34
2022-10-15T14:51:42.547Z,17.31
2022-10-15T14:55:06.351Z,17.30
2022-10-15T14:58:27.603Z,17.25
2022-10-15T15:05:22.518Z,17.11
2022-10-15T15:08:38.889Z,17.02
2022-10-15T15:12:21.800Z,16.96
2022-10-15T15:15:30.270Z,16.95
2022-10-15T15:18:49.045Z,16.94
2022-10-15T15:22:05.837Z,16.96
2022-10-15T15:25:29.766Z,16.94
2022-10-15T15:28:46.779Z,16.90
2022-10-15T15:32:02.933Z,16.78
2022-10-15T15:35:32.390Z,16.69
2022-10-15T15:38:51.889Z,16.68
2022-10-15T15:42:08.149Z,16.61
2022-10-15T15:45:33.612Z,16.58
2022-10-15T15:48:50.545Z,16.55
2022-10-15T15:52:06.850Z,16.55
2022-10-15T15:55:26.404Z,16.55
2022-10-15T15:58:42.960Z,16.54
2022-10-15T16:01:59.243Z,16.52
2022-10-15T16:05:19.934Z,16.47
2022-10-15T16:08:37.958Z,16.44
2022-10-15T16:11:54.431Z,16.43
2022-10-15T16:15:14.556Z,16.40
2022-10-15T16:18:30.078Z,16.39
2022-10-15T16:21:46.208Z,16.33
2022-10-15T16:25:04.988Z,16.30
2022-10-15T16:28:21.782Z,16.25
2022-10-15T16:31:38.376Z,16.26
2022-10-15T16:34:54.581Z,16.25
2022-10-15T16:38:13.937Z,16.25
2022-10-15T16:41:32.148Z,16.26
2022-10-15T16:44:48.337Z,16.29
2022-10-15T16:48:08.535Z,16.31
2022-10-15T16:51:26.725Z,16.34
2022-10-15T16:54:43.141Z,16.39
2022-10-15T16:57:59.321Z,16.42
2022-10-15T17:01:18.483Z,16.43
2022-10-15T17:04:35.161Z,16.45
2022-10-15T17:07:51.305Z,16.47
2022-10-15T17:11:07.509Z,16.47
2022-10-15T17:14:25.475Z,16.48
2022-10-15T17:17:46.062Z,16.50
2022-10-15T17:21:03.327Z,16.54
2022-10-15T17:24:22.780Z,16.60
2022-10-15T17:27:39.284Z,16.59
2022-10-15T17:30:55.601Z,16.61
2022-10-15T17:34:15.711Z,16.60
2022-10-15T17:40:50.706Z,16.60
2022-10-15T17:44:07.106Z,16.61
2022-10-15T17:47:24.628Z,16.58
2022-10-15T17:50:45.247Z,16.61
2022-10-15T17:54:02.981Z,16.59
2022-10-15T17:57:20.337Z,16.59
2022-10-15T18:00:37.073Z,16.57
2022-10-15T18:03:54.107Z,16.56
2022-10-15T18:07:15.268Z,16.54
2022-10-15T18:10:32.133Z,16.54
2022-10-15T18:13:49.531Z,16.49
2022-10-15T18:17:05.909Z,16.46
2022-10-15T18:20:22.171Z,16.43
2022-10-15T18:23:45.739Z,16.43
2022-10-15T18:27:02.752Z,16.42
2022-10-15T18:30:20.539Z,16.35
2022-10-15T18:33:39.880Z,16.32
2022-10-15T18:36:56.256Z,16.31
2022-10-15T18:40:15.198Z,16.27
2022-10-15T18:43:31.710Z,16.24
2022-10-15T18:46:48.649Z,16.17
2022-10-15T18:50:04.779Z,16.17
2022-10-15T18:53:24.517Z,16.11
2022-10-15T18:56:44.991Z,16.07
2022-10-15T19:00:01.202Z,16.01
2022-10-15T19:03:18.530Z,15.98
2022-10-15T19:06:37.151Z,15.98
2022-10-15T19:09:53.884Z,15.96
2022-10-15T19:13:14.134Z,15.93
2022-10-15T19:16:30.660Z,15.88
2022-10-15T19:19:51.673Z,15.87
2022-10-15T19:23:10.697Z,15.83
2022-10-15T19:26:28.568Z,15.80
2022-10-15T19:29:45.214Z,15.82
2022-10-15T19:33:01.424Z,15.80
2022-10-15T19:36:19.789Z,15.78
2022-10-15T19:39:38.370Z,15.76
2022-10-15T19:42:54.520Z,15.67
2022-10-15T19:46:14.156Z,15.51
2022-10-15T19:49:30.531Z,15.36
2022-10-15T19:52:46.821Z,15.27
2022-10-15T19:56:09.564Z,15.22
2022-10-15T19:59:33.075Z,15.26
2022-10-15T20:02:51.792Z,15.25
2022-10-15T20:06:10.295Z,15.27
2022-10-15T20:09:26.551Z,15.26
2022-10-15T20:12:42.814Z,15.24
2022-10-15T20:16:01.234Z,15.16
2022-10-15T20:19:17.865Z,15.14
2022-10-15T20:22:34.597Z,15.10
2022-10-15T20:25:52.055Z,14.96
2022-10-15T20:29:08.401Z,14.78
2022-10-15T20:32:34.188Z,14.63
2022-10-15T20:35:45.056Z,14.48
2022-10-15T20:39:06.890Z,14.28
2022-10-15T20:42:23.262Z,14.16
2022-10-15T20:45:46.291Z,14.02
2022-10-15T20:49:07.684Z,13.91
2022-10-15T20:52:23.048Z,13.80
2022-10-15T20:55:39.511Z,13.72
2022-10-15T20:58:55.595Z,13.66
2022-10-15T21:02:11.672Z,13.59
2022-10-15T21:05:27.820Z,13.54
2022-10-15T21:08:44.130Z,13.52
2022-10-15T21:12:00.657Z,13.49
2022-10-15T21:15:18.033Z,13.49
2022-10-15T21:18:34.899Z,13.46
2022-10-15T21:21:53.986Z,13.42
2022-10-15T21:25:12.804Z,13.38
2022-10-15T21:28:29.112Z,13.35
2022-10-15T21:31:48.052Z,13.31
2022-10-15T21:35:06.078Z,13.25
2022-10-15T21:38:22.411Z,13.20
2022-10-15T21:41:40.999Z,13.20
2022-10-15T21:44:57.039Z,13.25
2022-10-15T21:48:14.543Z,13.31
2022-10-15T21:51:33.977Z,13.42
2022-10-15T21:54:50.017Z,13.56
2022-10-15T21:58:08.859Z,13.57
2022-10-15T22:01:28.165Z,13.59
2022-10-15T22:04:44.712Z,13.60
2022-10-15T22:08:00.708Z,13.57
2022-10-15T22:11:23.991Z,13.56
2022-10-15T22:14:40.351Z,13.52
2022-10-15T22:17:56.674Z,13.50
2022-10-15T22:21:26.715Z,13.43
2022-10-15T22:24:43.106Z,13.38
2022-10-15T22:27:59.160Z,13.34
2022-10-15T22:31:19.093Z,13.32
2022-10-15T22:34:35.182Z,13.29
2022-10-15T22:37:51.337Z,13.29
2022-10-15T22:41:08.007Z,13.27
2022-10-15T22:44:26.528Z,13.32
2022-10-15T22:47:42.575Z,13.31
2022-10-15T22:51:05.472Z,13.32
2022-10-15T22:54:22.645Z,13.33
2022-10-15T22:57:39.018Z,13.32
2022-10-15T23:00:55.340Z,13.26
2022-10-15T23:04:13.539Z,13.21
2022-10-15T23:07:29.598Z,13.18
2022-10-15T23:10:45.784Z,13.20
2022-10-15T23:14:06.489Z,13.23
2022-10-15T23:20:40.811Z,13.26
2022-10-15T23:23:59.108Z,13.22
2022-10-15T23:27:16.418Z,13.18
2022-10-15T23:30:32.635Z,13.17
2022-10-15T23:33:48.823Z,13.19
2022-10-15T23:37:04.920Z,13.19
2022-10-15T23:40:21.816Z,13.20
2022-10-15T23:43:37.882Z,13.29
2022-10-15T23:46:54.152Z,13.33
2022-10-15T23:50:10.874Z,13.31
2022-10-15T23:53:28.026Z,13.28
2022-10-15T23:56:44.614Z,13.23
